Urb Toa Alta Hts, Puerto Rico
Current Conditions -  °F | °C
As of 2:56 AM on Sunday 21 Dec 2014 (Local Time) from TJSJ Reporting Station
Few Clouds Few Clouds  
Wind Chill: 78°   Ceiling: Unl
Heat Index: 80°   Visibility: 10mi
Dew Point: 69°   Wind: 7mph
Humidity: 74%   Direction: 90°E
Pressure: 30.02"   Gusts: NA
Location:  18.3893°N, 66.2481°W
Report Text: TJSJ 210656Z 09006KT 10SM FEW030 26/21 A3002 RMK AO2 SLP164 T02560206
Loading
Personal Weather Stations






























Interactive Weather Map New forecast layout! Learn more

10-Day Weather Forecast

Advertisements
Track Severe Weather on mobile